sensor_id;sensor_type;location;lat;lon;timestamp;pressure;altitude;pressure_sealevel;temperature;humidity
52361;BME280;38294;42.966;1.608;2022-10-17T02:26:03;97361.06;;;15.69;93.06
52361;BME280;38294;42.966;1.608;2022-10-17T02:28:56;97361.19;;;16.12;89.92
52361;BME280;38294;42.966;1.608;2022-10-17T02:31:24;97359.22;;;16.26;89.04
52361;BME280;38294;42.966;1.608;2022-10-17T02:36:25;97352.13;;;16.61;85.47
52361;BME280;38294;42.966;1.608;2022-10-17T02:38:54;97362.44;;;16.57;84.89
52361;BME280;38294;42.966;1.608;2022-10-17T02:41:22;97358.44;;;16.47;83.44
52361;BME280;38294;42.966;1.608;2022-10-17T02:43:49;97349.78;;;16.70;82.66
52361;BME280;38294;42.966;1.608;2022-10-17T02:46:19;97346.63;;;16.82;82.16
52361;BME280;38294;42.966;1.608;2022-10-17T02:48:59;97346.19;;;16.84;81.79
52361;BME280;38294;42.966;1.608;2022-10-17T02:51:46;97354.91;;;16.78;81.55
52361;BME280;38294;42.966;1.608;2022-10-17T02:54:32;97354.13;;;16.82;80.69
52361;BME280;38294;42.966;1.608;2022-10-17T02:57:07;97353.69;;;16.97;80.45
52361;BME280;38294;42.966;1.608;2022-10-17T02:59:35;97352.09;;;17.03;79.20
52361;BME280;38294;42.966;1.608;2022-10-17T03:02:05;97354.47;;;17.05;80.13
52361;BME280;38294;42.966;1.608;2022-10-17T03:04:31;97348.13;;;17.15;79.63
52361;BME280;38294;42.966;1.608;2022-10-17T03:06:56;97349.69;;;17.19;79.02
52361;BME280;38294;42.966;1.608;2022-10-17T03:09:22;97353.59;;;17.40;78.17
52361;BME280;38294;42.966;1.608;2022-10-17T03:11:47;97343.34;;;17.26;78.75
52361;BME280;38294;42.966;1.608;2022-10-17T03:14:13;97333.44;;;17.32;78.96
52361;BME280;38294;42.966;1.608;2022-10-17T03:16:38;97339.31;;;17.48;77.90
52361;BME280;38294;42.966;1.608;2022-10-17T03:19:04;97333.53;;;16.93;79.25
52361;BME280;38294;42.966;1.608;2022-10-17T03:21:29;97339.44;;;17.13;78.24
52361;BME280;38294;42.966;1.608;2022-10-17T03:23:55;97335.47;;;17.17;78.31
52361;BME280;38294;42.966;1.608;2022-10-17T03:26:21;97341.34;;;17.33;77.24
52361;BME280;38294;42.966;1.608;2022-10-17T03:28:46;97341.28;;;17.51;76.72
52361;BME280;38294;42.966;1.608;2022-10-17T03:31:14;97344.09;;;17.48;76.97
52361;BME280;38294;42.966;1.608;2022-10-17T03:33:41;97347.69;;;17.34;76.79
52361;BME280;38294;42.966;1.608;2022-10-17T03:36:14;97346.13;;;17.26;77.50
52361;BME280;38294;42.966;1.608;2022-10-17T03:38:41;97349.75;;;16.80;80.09
52361;BME280;38294;42.966;1.608;2022-10-17T03:41:07;97359.22;;;17.11;78.56
52361;BME280;38294;42.966;1.608;2022-10-17T03:43:33;97352.50;;;17.05;79.12
52361;BME280;38294;42.966;1.608;2022-10-17T03:46:00;97352.88;;;17.25;78.16
52361;BME280;38294;42.966;1.608;2022-10-17T03:48:26;97351.19;;;17.45;77.03
52361;BME280;38294;42.966;1.608;2022-10-17T03:51:04;97363.06;;;17.49;76.96
52361;BME280;38294;42.966;1.608;2022-10-17T03:53:30;97360.72;;;17.37;76.98
52361;BME280;38294;42.966;1.608;2022-10-17T03:55:56;97360.78;;;17.16;77.52
52361;BME280;38294;42.966;1.608;2022-10-17T03:58:22;97369.84;;;17.34;77.14
52361;BME280;38294;42.966;1.608;2022-10-17T04:00:47;97363.16;;;17.21;77.58
52361;BME280;38294;42.966;1.608;2022-10-17T04:03:13;97373.41;;;17.24;76.89
52361;BME280;38294;42.966;1.608;2022-10-17T04:05:38;97381.34;;;17.18;77.13
52361;BME280;38294;42.966;1.608;2022-10-17T04:08:04;97379.78;;;17.14;77.00
52361;BME280;38294;42.966;1.608;2022-10-17T04:10:29;97392.44;;;17.22;76.64
52361;BME280;38294;42.966;1.608;2022-10-17T04:12:55;97392.00;;;17.20;77.03
52361;BME280;38294;42.966;1.608;2022-10-17T04:15:21;97382.53;;;17.17;76.80
52361;BME280;38294;42.966;1.608;2022-10-17T04:17:46;97392.00;;;17.38;76.51
52361;BME280;38294;42.966;1.608;2022-10-17T04:20:12;97389.59;;;17.36;77.23
52361;BME280;38294;42.966;1.608;2022-10-17T04:22:37;97396.72;;;17.41;76.67
52361;BME280;38294;42.966;1.608;2022-10-17T04:25:03;97398.25;;;17.52;75.78
52361;BME280;38294;42.966;1.608;2022-10-17T04:27:29;97404.59;;;17.49;75.67
52361;BME280;38294;42.966;1.608;2022-10-17T04:29:54;97395.50;;;17.45;75.85
52361;BME280;38294;42.966;1.608;2022-10-17T04:32:20;97393.63;;;17.07;77.02
52361;BME280;38294;42.966;1.608;2022-10-17T04:34:49;97390.88;;;16.89;78.40
52361;BME280;38294;42.966;1.608;2022-10-17T04:37:14;97388.88;;;17.18;76.64
52361;BME280;38294;42.966;1.608;2022-10-17T04:39:40;97395.19;;;17.11;76.87
52361;BME280;38294;42.966;1.608;2022-10-17T04:42:06;97394.78;;;17.13;76.58
52361;BME280;38294;42.966;1.608;2022-10-17T04:44:31;97402.72;;;16.97;77.84
52361;BME280;38294;42.966;1.608;2022-10-17T04:46:58;97411.81;;;16.87;78.20
52361;BME280;38294;42.966;1.608;2022-10-17T04:49:24;97405.47;;;16.93;77.62
52361;BME280;38294;42.966;1.608;2022-10-17T04:51:49;97421.69;;;16.77;78.23
52361;BME280;38294;42.966;1.608;2022-10-17T04:54:15;97417.38;;;16.76;79.14
52361;BME280;38294;42.966;1.608;2022-10-17T04:56:40;97428.78;;;17.06;78.00
52361;BME280;38294;42.966;1.608;2022-10-17T04:59:06;97417.72;;;17.17;76.85
52361;BME280;38294;42.966;1.608;2022-10-17T05:01:31;97425.66;;;17.01;77.51
52361;BME280;38294;42.966;1.608;2022-10-17T05:03:57;97436.34;;;16.99;77.19
52361;BME280;38294;42.966;1.608;2022-10-17T05:06:24;97425.66;;;17.01;77.38
52361;BME280;38294;42.966;1.608;2022-10-17T05:08:50;97442.25;;;16.90;77.30
52361;BME280;38294;42.966;1.608;2022-10-17T05:11:21;97440.66;;;17.07;76.80
52361;BME280;38294;42.966;1.608;2022-10-17T05:13:56;97442.63;;;16.74;78.37
52361;BME280;38294;42.966;1.608;2022-10-17T05:16:23;97445.34;;;16.43;79.91
52361;BME280;38294;42.966;1.608;2022-10-17T05:18:53;97445.00;;;16.69;78.99
52361;BME280;38294;42.966;1.608;2022-10-17T05:21:20;97448.09;;;16.43;80.10
52361;BME280;38294;42.966;1.608;2022-10-17T05:23:46;97461.16;;;16.53;79.27
52361;BME280;38294;42.966;1.608;2022-10-17T05:26:12;97454.88;;;16.56;79.43
52361;BME280;38294;42.966;1.608;2022-10-17T05:28:38;97467.13;;;16.62;79.54
52361;BME280;38294;42.966;1.608;2022-10-17T05:31:05;97471.88;;;16.61;79.63
52361;BME280;38294;42.966;1.608;2022-10-17T05:33:32;97467.53;;;16.74;79.06
52361;BME280;38294;42.966;1.608;2022-10-17T05:35:58;97460.03;;;16.68;80.25
52361;BME280;38294;42.966;1.608;2022-10-17T05:38:24;97473.47;;;16.66;80.00
52361;BME280;38294;42.966;1.608;2022-10-17T05:40:50;97481.34;;;16.67;80.44
52361;BME280;38294;42.966;1.608;2022-10-17T05:43:15;97484.91;;;16.64;80.83
52361;BME280;38294;42.966;1.608;2022-10-17T05:45:41;97479.78;;;16.63;80.64
52361;BME280;38294;42.966;1.608;2022-10-17T05:48:07;97497.56;;;16.69;80.50
52361;BME280;38294;42.966;1.608;2022-10-17T05:50:33;97497.16;;;16.70;80.27
52361;BME280;38294;42.966;1.608;2022-10-17T05:52:59;97478.97;;;16.55;80.90
52361;BME280;38294;42.966;1.608;2022-10-17T05:55:25;97487.69;;;16.71;80.04
52361;BME280;38294;42.966;1.608;2022-10-17T05:57:51;97494.78;;;16.65;80.01
52361;BME280;38294;42.966;1.608;2022-10-17T06:00:18;97506.28;;;16.64;79.56
52361;BME280;38294;42.966;1.608;2022-10-17T06:02:45;97503.50;;;16.78;79.47
52361;BME280;38294;42.966;1.608;2022-10-17T06:05:11;97491.25;;;16.72;78.42
52361;BME280;38294;42.966;1.608;2022-10-17T06:07:37;97511.38;;;16.58;78.37
52361;BME280;38294;42.966;1.608;2022-10-17T06:10:03;97519.19;;;16.42;77.40
52361;BME280;38294;42.966;1.608;2022-10-17T06:12:29;97523.16;;;16.38;78.48
52361;BME280;38294;42.966;1.608;2022-10-17T06:14:54;97502.19;;;16.33;78.86
52361;BME280;38294;42.966;1.608;2022-10-17T06:17:20;97498.69;;;16.54;78.11
52361;BME280;38294;42.966;1.608;2022-10-17T06:19:45;97491.16;;;16.54;78.09
52361;BME280;38294;42.966;1.608;2022-10-17T06:22:12;97491.56;;;16.49;78.32
52361;BME280;38294;42.966;1.608;2022-10-17T06:24:37;97499.06;;;16.49;78.15
52361;BME280;38294;42.966;1.608;2022-10-17T06:27:03;97491.16;;;16.54;77.59
52361;BME280;38294;42.966;1.608;2022-10-17T06:29:28;97493.63;;;16.70;76.70
52361;BME280;38294;42.966;1.608;2022-10-17T06:31:54;97497.84;;;16.36;77.32
52361;BME280;38294;42.966;1.608;2022-10-17T06:34:19;97488.75;;;16.35;78.92
52361;BME280;38294;42.966;1.608;2022-10-17T06:36:45;97487.22;;;16.48;78.00
52361;BME280;38294;42.966;1.608;2022-10-17T06:39:11;97492.44;;;16.64;76.78
52361;BME280;38294;42.966;1.608;2022-10-17T06:41:37;97505.88;;;16.90;75.49
52361;BME280;38294;42.966;1.608;2022-10-17T06:44:04;97508.66;;;16.90;76.65
52361;BME280;38294;42.966;1.608;2022-10-17T06:46:35;97518.94;;;16.97;77.54
52361;BME280;38294;42.966;1.608;2022-10-17T06:49:01;97523.28;;;16.94;76.31
52361;BME280;38294;42.966;1.608;2022-10-17T06:51:26;97522.91;;;17.10;75.05
52361;BME280;38294;42.966;1.608;2022-10-17T06:53:52;97535.16;;;17.16;74.88
52361;BME280;38294;42.966;1.608;2022-10-17T06:56:17;97535.97;;;17.30;74.06
52361;BME280;38294;42.966;1.608;2022-10-17T06:58:43;97558.53;;;17.36;74.05
52361;BME280;38294;42.966;1.608;2022-10-17T07:01:11;97552.59;;;17.62;73.36
52361;BME280;38294;42.966;1.608;2022-10-17T07:03:38;97553.00;;;17.68;73.03
52361;BME280;38294;42.966;1.608;2022-10-17T07:06:05;97560.50;;;17.78;72.75
52361;BME280;38294;42.966;1.608;2022-10-17T07:08:31;97572.38;;;17.50;74.35
52361;BME280;38294;42.966;1.608;2022-10-17T07:10:56;97572.00;;;17.73;73.42
52361;BME280;38294;42.966;1.608;2022-10-17T07:13:22;97575.16;;;17.82;72.55
52361;BME280;38294;42.966;1.608;2022-10-17T07:15:48;97583.47;;;17.78;73.03
52361;BME280;38294;42.966;1.608;2022-10-17T07:18:14;97577.91;;;17.86;72.37
52361;BME280;38294;42.966;1.608;2022-10-17T07:20:39;97578.31;;;17.88;72.21
52361;BME280;38294;42.966;1.608;2022-10-17T07:23:05;97563.25;;;18.03;71.23
52361;BME280;38294;42.966;1.608;2022-10-17T07:25:31;97580.66;;;18.00;71.47
52361;BME280;38294;42.966;1.608;2022-10-17T07:27:56;97595.31;;;17.97;71.68
52361;BME280;38294;42.966;1.608;2022-10-17T07:30:22;97601.25;;;18.06;71.44
52361;BME280;38294;42.966;1.608;2022-10-17T07:32:51;97615.44;;;18.32;70.70
52361;BME280;38294;42.966;1.608;2022-10-17T07:35:17;97609.16;;;18.07;71.42
52361;BME280;38294;42.966;1.608;2022-10-17T07:37:43;97612.34;;;17.77;73.11
52361;BME280;38294;42.966;1.608;2022-10-17T07:40:09;97621.84;;;17.91;73.24
52361;BME280;38294;42.966;1.608;2022-10-17T07:42:36;97623.44;;;17.92;73.56
52361;BME280;38294;42.966;1.608;2022-10-17T07:45:02;97622.66;;;17.91;74.12
52361;BME280;38294;42.966;1.608;2022-10-17T07:47:27;97614.31;;;17.95;73.30
52361;BME280;38294;42.966;1.608;2022-10-17T07:49:55;97614.34;;;17.59;75.88
52361;BME280;38294;42.966;1.608;2022-10-17T07:52:21;97612.28;;;18.20;72.86
52361;BME280;38294;42.966;1.608;2022-10-17T07:54:47;97618.56;;;18.56;71.22
52361;BME280;38294;42.966;1.608;2022-10-17T07:57:12;97639.16;;;18.62;70.88
52361;BME280;38294;42.966;1.608;2022-10-17T07:59:38;97651.84;;;18.49;71.33
52361;BME280;38294;42.966;1.608;2022-10-17T08:02:03;97641.09;;;18.75;70.36
52361;BME280;38294;42.966;1.608;2022-10-17T08:04:29;97648.19;;;18.83;69.95
52361;BME280;38294;42.966;1.608;2022-10-17T08:06:54;97643.03;;;18.85;69.79
52361;BME280;38294;42.966;1.608;2022-10-17T08:09:20;97643.09;;;18.64;70.47
52361;BME280;38294;42.966;1.608;2022-10-17T08:11:46;97643.84;;;18.75;70.39
52361;BME280;38294;42.966;1.608;2022-10-17T08:14:12;97635.47;;;18.90;70.01
52361;BME280;38294;42.966;1.608;2022-10-17T08:16:39;97638.56;;;19.09;68.97
52361;BME280;38294;42.966;1.608;2022-10-17T08:19:04;97634.91;;;19.19;68.59
52361;BME280;38294;42.966;1.608;2022-10-17T08:21:31;97638.19;;;18.97;69.78
52361;BME280;38294;42.966;1.608;2022-10-17T08:23:56;97624.16;;;19.28;68.27
52361;BME280;38294;42.966;1.608;2022-10-17T08:26:22;97617.91;;;19.07;69.10
52361;BME280;38294;42.966;1.608;2022-10-17T08:28:48;97615.25;;;18.85;70.19
52361;BME280;38294;42.966;1.608;2022-10-17T08:31:15;97635.88;;;18.84;70.68
52361;BME280;38294;42.966;1.608;2022-10-17T08:33:45;97634.13;;;19.19;69.17
52361;BME280;38294;42.966;1.608;2022-10-17T08:36:16;97628.50;;;19.26;68.96
52361;BME280;38294;42.966;1.608;2022-10-17T08:38:43;97627.81;;;19.15;69.26
52361;BME280;38294;42.966;1.608;2022-10-17T08:46:33;97664.22;;;19.31;68.69
52361;BME280;38294;42.966;1.608;2022-10-17T08:49:01;97658.63;;;19.38;68.28
52361;BME280;38294;42.966;1.608;2022-10-17T08:51:31;97660.66;;;19.27;68.82
52361;BME280;38294;42.966;1.608;2022-10-17T08:54:15;97670.53;;;19.35;68.91
52361;BME280;38294;42.966;1.608;2022-10-17T08:56:51;97674.53;;;19.27;69.27
52361;BME280;38294;42.966;1.608;2022-10-17T08:59:26;97684.00;;;19.36;69.27
52361;BME280;38294;42.966;1.608;2022-10-17T09:13:18;97716.00;;;18.86;72.14
52361;BME280;38294;42.966;1.608;2022-10-17T09:18:32;97713.03;;;19.28;69.81
52361;BME280;38294;42.966;1.608;2022-10-17T09:21:43;97716.56;;;19.43;69.00
52361;BME280;38294;42.966;1.608;2022-10-17T09:24:29;97724.66;;;19.78;68.29
52361;BME280;38294;42.966;1.608;2022-10-17T09:26:58;97729.38;;;19.85;68.44
52361;BME280;38294;42.966;1.608;2022-10-17T09:29:25;97733.44;;;19.73;69.09
52361;BME280;38294;42.966;1.608;2022-10-17T09:32:12;97727.78;;;19.87;68.96
52361;BME280;38294;42.966;1.608;2022-10-17T09:34:41;97739.06;;;19.66;69.48
52361;BME280;38294;42.966;1.608;2022-10-17T09:37:12;97739.81;;;19.74;69.65
52361;BME280;38294;42.966;1.608;2022-10-17T09:39:39;97744.97;;;19.68;69.80
52361;BME280;38294;42.966;1.608;2022-10-17T09:42:10;97757.47;;;20.05;68.66
52361;BME280;38294;42.966;1.608;2022-10-17T09:44:47;97756.91;;;20.24;67.82
52361;BME280;38294;42.966;1.608;2022-10-17T09:49:55;97732.75;;;20.58;66.30
52361;BME280;38294;42.966;1.608;2022-10-17T09:52:29;97734.63;;;20.31;67.01
52361;BME280;38294;42.966;1.608;2022-10-17T09:55:04;97729.50;;;20.67;66.04
52361;BME280;38294;42.966;1.608;2022-10-17T10:00:30;97752.03;;;21.51;63.27
52361;BME280;38294;42.966;1.608;2022-10-17T10:03:20;97779.88;;;22.11;60.93
52361;BME280;38294;42.966;1.608;2022-10-17T10:06:11;97799.28;;;22.45;59.86
52361;BME280;38294;42.966;1.608;2022-10-17T10:08:52;97806.34;;;22.99;58.79
52361;BME280;38294;42.966;1.608;2022-10-17T10:11:21;97806.28;;;23.03;58.92
52361;BME280;38294;42.966;1.608;2022-10-17T10:13:48;97802.09;;;22.68;59.58
52361;BME280;38294;42.966;1.608;2022-10-17T10:16:19;97785.53;;;23.00;58.91
52361;BME280;38294;42.966;1.608;2022-10-17T10:18:45;97786.66;;;23.46;57.97
52361;BME280;38294;42.966;1.608;2022-10-17T10:21:23;97795.78;;;23.70;56.32
52361;BME280;38294;42.966;1.608;2022-10-17T10:26:26;97818.91;;;22.88;59.08
52361;BME280;38294;42.966;1.608;2022-10-17T10:31:47;97817.97;;;23.18;58.75
52361;BME280;38294;42.966;1.608;2022-10-17T10:37:05;97832.66;;;22.52;61.53
52361;BME280;38294;42.966;1.608;2022-10-17T10:41:56;97833.94;;;23.60;58.44
52361;BME280;38294;42.966;1.608;2022-10-17T10:44:25;97843.31;;;23.07;59.67
52361;BME280;38294;42.966;1.608;2022-10-17T10:47:43;97842.72;;;23.39;58.42
52361;BME280;38294;42.966;1.608;2022-10-17T10:55:49;97862.34;;;23.16;60.11
52361;BME280;38294;42.966;1.608;2022-10-17T10:58:25;97857.09;;;23.80;57.91
52361;BME280;38294;42.966;1.608;2022-10-17T11:00:53;97849.53;;;23.38;59.45
52361;BME280;38294;42.966;1.608;2022-10-17T11:03:52;97853.16;;;23.58;59.79
52361;BME280;38294;42.966;1.608;2022-10-17T11:06:24;97842.06;;;24.10;58.49
52361;BME280;38294;42.966;1.608;2022-10-17T11:11:33;97810.81;;;24.64;56.54
52361;BME280;38294;42.966;1.608;2022-10-17T11:14:14;97813.38;;;24.90;55.43
52361;BME280;38294;42.966;1.608;2022-10-17T11:19:20;97820.19;;;24.57;55.44
52361;BME280;38294;42.966;1.608;2022-10-17T11:24:34;97829.47;;;24.54;57.06
52361;BME280;38294;42.966;1.608;2022-10-17T11:27:03;97823.06;;;24.70;56.90
52361;BME280;38294;42.966;1.608;2022-10-17T11:29:32;97825.00;;;25.34;54.37
52361;BME280;38294;42.966;1.608;2022-10-17T11:32:10;97830.13;;;25.80;53.17
52361;BME280;38294;42.966;1.608;2022-10-17T11:34:45;97841.19;;;26.13;51.26
52361;BME280;38294;42.966;1.608;2022-10-17T11:37:19;97821.44;;;25.62;51.88
52361;BME280;38294;42.966;1.608;2022-10-17T11:39:50;97810.84;;;25.53;51.89
52361;BME280;38294;42.966;1.608;2022-10-17T11:42:31;97814.34;;;24.84;53.38
52361;BME280;38294;42.966;1.608;2022-10-17T11:45:08;97822.63;;;24.71;54.24
52361;BME280;38294;42.966;1.608;2022-10-17T11:50:26;97794.84;;;25.09;54.02
52361;BME280;38294;42.966;1.608;2022-10-17T11:52:59;97812.47;;;25.38;52.95
52361;BME280;38294;42.966;1.608;2022-10-17T11:55:28;97815.88;;;25.75;51.83
52361;BME280;38294;42.966;1.608;2022-10-17T12:18:43;97735.91;;;25.79;49.95
52361;BME280;38294;42.966;1.608;2022-10-17T12:21:09;97727.88;;;26.66;48.38
52361;BME280;38294;42.966;1.608;2022-10-17T12:23:35;97750.50;;;26.50;48.31
52361;BME280;38294;42.966;1.608;2022-10-17T12:26:08;97754.25;;;26.34;49.02
52361;BME280;38294;42.966;1.608;2022-10-17T12:33:57;97733.09;;;27.98;45.53
52361;BME280;38294;42.966;1.608;2022-10-17T12:49:47;97722.38;;;29.45;40.98
52361;BME280;38294;42.966;1.608;2022-10-17T12:52:14;97715.16;;;29.62;40.41
52361;BME280;38294;42.966;1.608;2022-10-17T12:54:43;97709.09;;;29.37;40.53
52361;BME280;38294;42.966;1.608;2022-10-17T12:57:26;97705.19;;;28.98;41.82
52361;BME280;38294;42.966;1.608;2022-10-17T12:59:54;97690.69;;;29.50;40.53
52361;BME280;38294;42.966;1.608;2022-10-17T13:02:22;97682.44;;;29.80;39.77
52361;BME280;38294;42.966;1.608;2022-10-17T13:04:49;97681.06;;;30.50;38.64
52361;BME280;38294;42.966;1.608;2022-10-17T13:07:20;97676.44;;;30.76;37.99
52361;BME280;38294;42.966;1.608;2022-10-17T13:09:47;97667.66;;;29.94;39.33
52361;BME280;38294;42.966;1.608;2022-10-17T13:12:21;97670.88;;;30.43;38.62
52361;BME280;38294;42.966;1.608;2022-10-17T13:14:49;97661.91;;;30.68;37.88
52361;BME280;38294;42.966;1.608;2022-10-17T13:17:22;97657.63;;;30.49;38.09
52361;BME280;38294;42.966;1.608;2022-10-17T13:19:48;97667.25;;;28.81;40.97
52361;BME280;38294;42.966;1.608;2022-10-17T13:22:20;97656.88;;;29.74;38.90
52361;BME280;38294;42.966;1.608;2022-10-17T13:24:46;97654.38;;;30.65;37.67
52361;BME280;38294;42.966;1.608;2022-10-17T13:27:26;97655.19;;;30.09;39.00
52361;BME280;38294;42.966;1.608;2022-10-17T13:29:52;97654.16;;;29.98;38.91
52361;BME280;38294;42.966;1.608;2022-10-17T13:32:21;97655.13;;;29.86;39.59
52361;BME280;38294;42.966;1.608;2022-10-17T13:37:33;97640.88;;;29.29;41.90
52361;BME280;38294;42.966;1.608;2022-10-17T13:39:59;97641.28;;;29.55;43.48
52361;BME280;38294;42.966;1.608;2022-10-17T13:42:28;97641.84;;;29.08;44.46
52361;BME280;38294;42.966;1.608;2022-10-17T13:44:54;97638.06;;;29.02;45.19
52361;BME280;38294;42.966;1.608;2022-10-17T13:47:26;97640.63;;;28.82;45.80
52361;BME280;38294;42.966;1.608;2022-10-17T13:49:59;97646.22;;;27.87;47.90
52361;BME280;38294;42.966;1.608;2022-10-17T13:52:35;97643.69;;;28.38;46.66
52361;BME280;38294;42.966;1.608;2022-10-17T13:55:12;97638.88;;;27.99;47.96
52361;BME280;38294;42.966;1.608;2022-10-17T13:57:40;97646.34;;;28.24;47.29
52361;BME280;38294;42.966;1.608;2022-10-17T14:00:19;97641.88;;;28.81;45.74
52361;BME280;38294;42.966;1.608;2022-10-17T14:02:46;97648.22;;;28.27;46.84
52361;BME280;38294;42.966;1.608;2022-10-17T14:05:16;97630.28;;;27.93;47.65
52361;BME280;38294;42.966;1.608;2022-10-17T14:07:49;97632.06;;;28.18;47.38
52361;BME280;38294;42.966;1.608;2022-10-17T14:10:21;97628.66;;;28.14;47.48
52361;BME280;38294;42.966;1.608;2022-10-17T14:12:50;97618.47;;;27.77;48.41
52361;BME280;38294;42.966;1.608;2022-10-17T14:15:16;97626.53;;;27.96;48.20
52361;BME280;38294;42.966;1.608;2022-10-17T14:17:43;97632.44;;;27.89;48.42
52361;BME280;38294;42.966;1.608;2022-10-17T14:20:20;97636.97;;;28.27;46.88
52361;BME280;38294;42.966;1.608;2022-10-17T14:22:47;97641.47;;;28.15;47.22
52361;BME280;38294;42.966;1.608;2022-10-17T14:25:32;97645.00;;;28.74;45.92
52361;BME280;38294;42.966;1.608;2022-10-17T14:28:06;97647.44;;;28.35;46.92
52361;BME280;38294;42.966;1.608;2022-10-17T14:30:38;97638.22;;;28.44;46.48
52361;BME280;38294;42.966;1.608;2022-10-17T14:33:29;97639.78;;;28.54;46.44
52361;BME280;38294;42.966;1.608;2022-10-17T14:35:56;97622.56;;;28.52;46.46
52361;BME280;38294;42.966;1.608;2022-10-17T14:38:23;97627.25;;;29.09;45.27
52361;BME280;38294;42.966;1.608;2022-10-17T14:41:05;97616.28;;;29.21;43.67
52361;BME280;38294;42.966;1.608;2022-10-17T14:43:33;97625.78;;;29.41;43.78
52361;BME280;38294;42.966;1.608;2022-10-17T14:45:59;97616.06;;;29.42;43.71
52361;BME280;38294;42.966;1.608;2022-10-17T14:48:27;97616.78;;;28.74;45.04
52361;BME280;38294;42.966;1.608;2022-10-17T14:51:08;97616.28;;;28.30;45.84
52361;BME280;38294;42.966;1.608;2022-10-17T14:53:34;97616.75;;;28.37;46.08
52361;BME280;38294;42.966;1.608;2022-10-17T14:56:02;97617.53;;;28.38;45.41
52361;BME280;38294;42.966;1.608;2022-10-17T14:58:31;97616.75;;;28.37;45.60
52361;BME280;38294;42.966;1.608;2022-10-17T15:00:58;97617.25;;;28.27;46.26
52361;BME280;38294;42.966;1.608;2022-10-17T15:03:25;97614.56;;;28.50;46.17
52361;BME280;38294;42.966;1.608;2022-10-17T15:05:51;97615.69;;;28.53;45.77
52361;BME280;38294;42.966;1.608;2022-10-17T15:08:20;97618.53;;;28.71;45.17
52361;BME280;38294;42.966;1.608;2022-10-17T15:10:47;97619.75;;;28.61;45.17
52361;BME280;38294;42.966;1.608;2022-10-17T15:13:14;97612.53;;;28.42;45.89
52361;BME280;38294;42.966;1.608;2022-10-17T15:15:40;97618.50;;;28.62;45.71
52361;BME280;38294;42.966;1.608;2022-10-17T15:18:09;97622.44;;;28.46;45.84
52361;BME280;38294;42.966;1.608;2022-10-17T15:20:35;97621.44;;;28.40;46.06
52361;BME280;38294;42.966;1.608;2022-10-17T15:23:01;97614.69;;;28.10;47.33
52361;BME280;38294;42.966;1.608;2022-10-17T15:25:29;97621.56;;;28.09;47.09
52361;BME280;38294;42.966;1.608;2022-10-17T15:27:55;97622.91;;;27.96;47.94
52361;BME280;38294;42.966;1.608;2022-10-17T15:30:23;97629.88;;;28.13;47.29
52361;BME280;38294;42.966;1.608;2022-10-17T15:32:50;97626.13;;;28.07;47.71
52361;BME280;38294;42.966;1.608;2022-10-17T15:35:16;97631.63;;;27.80;48.48
52361;BME280;38294;42.966;1.608;2022-10-17T15:37:42;97631.53;;;28.01;47.29
52361;BME280;38294;42.966;1.608;2022-10-17T15:40:16;97640.03;;;27.40;48.95
52361;BME280;38294;42.966;1.608;2022-10-17T15:42:43;97635.63;;;27.30;49.28
52361;BME280;38294;42.966;1.608;2022-10-17T15:45:13;97635.00;;;27.35;49.12
52361;BME280;38294;42.966;1.608;2022-10-17T15:47:42;97637.25;;;27.18;49.66
52361;BME280;38294;42.966;1.608;2022-10-17T15:50:15;97639.50;;;27.54;49.21
52361;BME280;38294;42.966;1.608;2022-10-17T15:52:41;97646.91;;;27.39;49.47
52361;BME280;38294;42.966;1.608;2022-10-17T15:55:10;97646.34;;;27.22;49.91
52361;BME280;38294;42.966;1.608;2022-10-17T15:57:43;97659.63;;;27.43;49.34
52361;BME280;38294;42.966;1.608;2022-10-17T16:00:15;97649.28;;;27.19;50.36
52361;BME280;38294;42.966;1.608;2022-10-17T16:02:41;97661.16;;;27.13;50.25
52361;BME280;38294;42.966;1.608;2022-10-17T16:05:24;97664.16;;;26.97;50.69
52361;BME280;38294;42.966;1.608;2022-10-17T16:07:54;97649.63;;;26.99;50.95
52361;BME280;38294;42.966;1.608;2022-10-17T16:10:20;97664.88;;;26.76;51.51
52361;BME280;38294;42.966;1.608;2022-10-17T16:12:46;97665.28;;;26.66;51.80
52361;BME280;38294;42.966;1.608;2022-10-17T16:15:24;97663.34;;;26.75;51.51
52361;BME280;38294;42.966;1.608;2022-10-17T16:17:52;97656.97;;;26.96;50.80
52361;BME280;38294;42.966;1.608;2022-10-17T16:20:18;97655.00;;;26.84;51.44
52361;BME280;38294;42.966;1.608;2022-10-17T16:22:44;97654.91;;;26.75;51.48
52361;BME280;38294;42.966;1.608;2022-10-17T16:25:24;97664.22;;;26.85;51.32
52361;BME280;38294;42.966;1.608;2022-10-17T16:27:52;97664.34;;;26.81;51.49
52361;BME280;38294;42.966;1.608;2022-10-17T16:30:19;97669.38;;;26.52;52.30
52361;BME280;38294;42.966;1.608;2022-10-17T16:32:46;97660.09;;;26.64;52.05
52361;BME280;38294;42.966;1.608;2022-10-17T16:35:37;97662.31;;;26.69;51.45
52361;BME280;38294;42.966;1.608;2022-10-17T16:38:05;97659.13;;;27.14;50.48
52361;BME280;38294;42.966;1.608;2022-10-17T16:40:30;97658.06;;;26.99;50.57
52361;BME280;38294;42.966;1.608;2022-10-17T16:42:56;97657.59;;;27.22;49.82
52361;BME280;38294;42.966;1.608;2022-10-17T16:45:22;97662.25;;;27.16;50.50
52361;BME280;38294;42.966;1.608;2022-10-17T16:47:48;97660.06;;;26.77;51.59
52361;BME280;38294;42.966;1.608;2022-10-17T16:50:14;97660.50;;;26.88;51.56
52361;BME280;38294;42.966;1.608;2022-10-17T16:52:40;97667.66;;;26.89;51.66
52361;BME280;38294;42.966;1.608;2022-10-17T16:55:06;97674.72;;;26.25;53.17
52361;BME280;38294;42.966;1.608;2022-10-17T16:57:32;97674.50;;;26.19;53.66
52361;BME280;38294;42.966;1.608;2022-10-17T16:59:58;97678.41;;;26.34;53.33
52361;BME280;38294;42.966;1.608;2022-10-17T17:02:24;97693.13;;;26.38;53.31
52361;BME280;38294;42.966;1.608;2022-10-17T17:04:49;97692.94;;;26.20;53.52
52361;BME280;38294;42.966;1.608;2022-10-17T17:07:15;97697.78;;;25.94;54.88
52361;BME280;38294;42.966;1.608;2022-10-17T17:09:43;97699.31;;;25.83;55.46
52361;BME280;38294;42.966;1.608;2022-10-17T17:12:08;97699.75;;;25.56;56.50